Time;durP1;ratioP1;P1;durP2;ratioP2;P2;SDS_P1;SDS_P2;PMS_P1;PMS_P2;Temp;Humidity;BMP_temperature;BMP_pressure;BME280_temperature;BME280_humidity;BME280_pressure;Samples;Min_cycle;Max_cycle;Signal;HPM_P1;HPM_P2
2021/06/05 00:00:48;;;;;;;1.60;1.50;;;20.30;99.90;;;;;;5034149;28;20599;-72
2021/06/05 00:03:15;;;;;;;3.07;1.60;;;20.20;99.90;;;;;;5034170;28;20471;-72
2021/06/05 00:05:45;;;;;;;1.63;1.53;;;20.20;99.90;;;;;;5034487;28;20455;-73
2021/06/05 00:08:13;;;;;;;3.07;1.70;;;20.10;99.90;;;;;;5034973;28;20546;-73
2021/06/05 00:10:43;;;;;;;1.70;1.60;;;20.20;99.90;;;;;;5034794;28;20453;-73
2021/06/05 00:13:13;;;;;;;1.00;1.00;;;20.10;99.90;;;;;;5034749;28;20948;-73
2021/06/05 00:15:43;;;;;;;1.60;1.50;;;20.10;99.90;;;;;;5035254;28;20458;-73
2021/06/05 00:18:10;;;;;;;1.60;1.50;;;20.20;99.90;;;;;;5035504;28;20447;-73
2021/06/05 00:20:37;;;;;;;1.70;1.60;;;20.20;99.90;;;;;;5034379;28;20448;-73
2021/06/05 00:23:08;;;;;;;1.80;1.70;;;20.20;99.90;;;;;;5034693;28;20475;-73
2021/06/05 00:25:35;;;;;;;1.37;1.30;;;20.20;99.90;;;;;;5034582;28;20452;-73
2021/06/05 00:28:02;;;;;;;1.97;1.87;;;20.20;99.90;;;;;;5035075;28;20450;-73
2021/06/05 00:30:29;;;;;;;1.53;1.43;;;20.20;99.90;;;;;;5034477;28;20540;-73
2021/06/05 00:32:56;;;;;;;1.60;1.50;;;20.20;99.90;;;;;;5033823;28;20491;-73
2021/06/05 00:35:24;;;;;;;1.80;1.50;;;20.20;99.90;;;;;;5033798;28;20531;-72
2021/06/05 00:37:50;;;;;;;1.90;1.60;;;20.20;99.90;;;;;;5033834;28;20540;-73
2021/06/05 00:40:20;;;;;;;1.63;1.37;;;20.10;99.90;;;;;;5033908;28;20621;-73
2021/06/05 00:42:47;;;;;;;1.60;1.50;;;20.10;99.90;;;;;;5033878;28;20890;-73
2021/06/05 00:45:15;;;;;;;1.40;1.30;;;20.00;99.90;;;;;;5033662;28;20594;-72
2021/06/05 00:47:42;;;;;;;1.90;1.80;;;20.00;99.90;;;;;;5033773;28;20280;-74
2021/06/05 00:50:12;;;;;;;3.30;1.50;;;20.00;99.90;;;;;;5033647;28;20455;-74
2021/06/05 00:52:41;;;;;;;1.77;1.67;;;20.00;99.90;;;;;;5033394;28;20493;-75
2021/06/05 00:55:09;;;;;;;2.80;1.70;;;20.00;99.90;;;;;;5033474;28;20817;-75
2021/06/05 00:57:37;;;;;;;1.93;1.83;;;19.90;99.90;;;;;;5033496;28;20451;-75
2021/06/05 01:00:06;;;;;;;2.30;2.08;;;19.80;99.90;;;;;;5033498;28;20448;-75
2021/06/05 01:02:32;;;;;;;3.85;1.98;;;19.70;99.90;;;;;;5033658;28;20231;-75
2021/06/05 01:04:58;;;;;;;2.10;1.63;;;19.60;99.90;;;;;;5033466;28;20205;-75
2021/06/05 01:07:28;;;;;;;3.17;1.87;;;19.60;99.90;;;;;;5033326;28;20538;-75
2021/06/05 01:10:00;;;;;;;1.73;1.63;;;19.50;99.90;;;;;;5033233;28;21025;-75
2021/06/05 01:12:35;;;;;;;2.05;1.60;;;19.40;99.90;;;;;;5033541;28;20590;-75
2021/06/05 01:15:10;;;;;;;2.78;1.95;;;19.20;99.90;;;;;;5035836;28;20244;-78
2021/06/05 01:17:40;;;;;;;2.38;1.73;;;19.20;99.90;;;;;;5035042;28;20295;-76
2021/06/05 01:20:10;;;;;;;2.08;1.88;;;19.20;99.90;;;;;;5034295;28;20617;-76
2021/06/05 01:23:12;;;;;;;2.35;1.55;;;19.30;99.90;;;;;;5034734;28;20330;-76
2021/06/05 01:26:17;;;;;;;1.70;1.60;;;19.30;99.90;;;;;;5034730;28;20253;-76
2021/06/05 01:28:50;;;;;;;1.80;1.70;;;19.20;99.90;;;;;;5032074;28;20735;-76
2021/06/05 01:31:23;;;;;;;1.98;1.70;;;19.20;99.90;;;;;;5033742;28;20250;-77
2021/06/05 01:33:50;;;;;;;2.38;2.17;;;19.10;99.90;;;;;;5034525;28;20214;-76
2021/06/05 01:36:18;;;;;;;1.75;1.65;;;19.10;99.90;;;;;;5034432;28;20638;-76
2021/06/05 01:38:48;;;;;;;2.22;1.85;;;19.00;99.90;;;;;;5034044;28;20298;-76
2021/06/05 01:41:18;;;;;;;1.60;1.50;;;19.00;99.90;;;;;;5033777;28;20731;-76
2021/06/05 01:43:46;;;;;;;3.63;1.65;;;19.00;99.90;;;;;;5034610;28;20189;-76
2021/06/05 01:46:15;;;;;;;1.65;1.55;;;19.00;99.90;;;;;;5034405;28;20618;-76
2021/06/05 01:48:42;;;;;;;1.58;1.40;;;19.00;99.90;;;;;;5034368;28;20211;-76
2021/06/05 01:51:11;;;;;;;3.22;1.58;;;19.00;99.90;;;;;;5033446;28;20676;-76
2021/06/05 01:53:42;;;;;;;1.27;1.20;;;19.00;99.90;;;;;;5034183;28;20298;-76
2021/06/05 01:56:12;;;;;;;1.67;1.25;;;19.10;99.90;;;;;;5034157;28;20291;-76
2021/06/05 01:58:42;;;;;;;1.50;1.40;;;19.10;99.90;;;;;;5034099;28;20242;-76
2021/06/05 02:01:10;;;;;;;2.13;1.40;;;19.20;99.90;;;;;;5033544;28;20210;-76
2021/06/05 02:03:36;;;;;;;1.42;1.33;;;19.20;99.90;;;;;;5033561;28;20447;-76
2021/06/05 02:06:04;;;;;;;2.45;1.40;;;19.20;99.90;;;;;;5033903;28;20609;-76
2021/06/05 02:08:31;;;;;;;1.60;1.50;;;19.30;99.90;;;;;;5033886;28;20205;-76
2021/06/05 02:11:03;;;;;;;1.40;1.30;;;19.30;99.90;;;;;;5033269;28;20295;-76
2021/06/05 02:13:36;;;;;;;1.60;1.30;;;19.40;99.90;;;;;;5034010;28;20239;-76
2021/06/05 02:16:09;;;;;;;1.63;1.50;;;19.50;99.90;;;;;;5033715;28;20450;-77
2021/06/05 02:18:39;;;;;;;1.87;1.63;;;19.50;99.90;;;;;;5034145;28;20443;-76
2021/06/05 02:21:11;;;;;;;1.13;1.13;;;19.50;99.90;;;;;;5033344;28;20471;-76
2021/06/05 02:23:41;;;;;;;1.67;1.50;;;19.50;99.90;;;;;;5033921;28;20527;-76
2021/06/05 02:26:08;;;;;;;1.20;1.10;;;19.50;99.90;;;;;;5037322;28;20443;-76
2021/06/05 02:28:36;;;;;;;1.73;1.63;;;19.50;99.90;;;;;;5037697;28;20450;-76
2021/06/05 02:31:05;;;;;;;1.70;1.43;;;19.60;99.90;;;;;;5037237;28;20353;-76
2021/06/05 02:33:34;;;;;;;2.90;1.40;;;19.60;99.90;;;;;;5037668;28;20983;-76
2021/06/05 02:36:01;;;;;;;1.80;1.70;;;19.60;99.90;;;;;;5037766;28;20479;-76
2021/06/05 02:38:28;;;;;;;3.70;1.40;;;19.60;99.90;;;;;;5037825;28;20527;-76
2021/06/05 02:40:56;;;;;;;1.70;1.57;;;19.60;99.90;;;;;;5036942;28;20254;-76
2021/06/05 02:43:30;;;;;;;1.52;1.30;;;19.60;99.90;;;;;;5037612;28;20533;-76
2021/06/05 02:46:02;;;;;;;1.60;1.50;;;19.50;99.90;;;;;;5037591;28;20226;-76
2021/06/05 02:48:43;;;;;;;7.25;1.67;;;19.50;99.90;;;;;;5037631;28;20565;-76
2021/06/05 02:51:10;;;;;;;1.60;1.48;;;19.50;99.90;;;;;;5037081;28;20236;-76
2021/06/05 02:53:36;;;;;;;2.40;1.80;;;19.40;99.90;;;;;;5036800;28;20224;-76
2021/06/05 02:56:03;;;;;;;1.70;1.40;;;19.40;99.90;;;;;;5037105;28;20528;-76
2021/06/05 02:58:29;;;;;;;3.05;1.50;;;19.40;99.90;;;;;;5037341;28;20297;-76
2021/06/05 03:00:56;;;;;;;1.38;1.30;;;19.40;99.90;;;;;;5036665;28;20298;-76
2021/06/05 03:03:23;;;;;;;1.70;1.40;;;19.40;99.90;;;;;;5037040;28;20306;-76
2021/06/05 03:05:51;;;;;;;2.83;1.52;;;19.40;99.90;;;;;;5036869;28;20689;-76
2021/06/05 03:08:21;;;;;;;2.60;2.05;;;19.30;99.90;;;;;;5037002;28;20208;-76
2021/06/05 03:10:48;;;;;;;1.88;1.20;;;19.20;99.90;;;;;;5036526;28;20291;-76
2021/06/05 03:13:15;;;;;;;1.40;1.30;;;19.00;99.90;;;;;;5037154;28;20231;-76
2021/06/05 03:15:43;;;;;;;1.58;1.48;;;18.80;99.90;;;;;;5037170;28;20294;-76
2021/06/05 03:18:11;;;;;;;1.80;1.45;;;18.70;99.90;;;;;;5037161;28;20289;-76
2021/06/05 03:20:41;;;;;;;1.98;1.73;;;18.50;99.90;;;;;;5036464;28;20658;-76
2021/06/05 03:23:10;;;;;;;1.60;1.33;;;18.30;99.90;;;;;;5036586;28;20222;-76
2021/06/05 03:25:37;;;;;;;1.80;1.50;;;18.10;99.90;;;;;;5036668;28;20204;-76
2021/06/05 03:28:04;;;;;;;1.50;1.40;;;18.10;99.90;;;;;;5036813;28;20619;-76
2021/06/05 03:30:31;;;;;;;1.38;1.27;;;18.20;99.90;;;;;;5036711;28;20210;-76
2021/06/05 03:32:58;;;;;;;1.85;1.30;;;18.30;99.90;;;;;;5036117;28;20323;-76
2021/06/05 03:35:25;;;;;;;4.05;1.63;;;18.40;99.90;;;;;;5036408;28;20212;-76
2021/06/05 03:37:52;;;;;;;1.55;1.45;;;18.30;99.90;;;;;;5036528;28;20291;-76
2021/06/05 03:40:24;;;;;;;2.35;1.58;;;18.30;99.90;;;;;;5036363;28;20215;-76
2021/06/05 03:42:50;;;;;;;3.40;1.80;;;18.20;99.90;;;;;;5036540;28;20738;-76
2021/06/05 03:45:17;;;;;;;1.45;1.35;;;18.30;99.90;;;;;;5036577;28;20210;-76
2021/06/05 03:47:46;;;;;;;2.78;1.58;;;18.40;99.90;;;;;;5036219;28;20200;-76
2021/06/05 03:50:15;;;;;;;1.95;1.70;;;18.50;99.90;;;;;;5035940;28;20243;-76
2021/06/05 03:52:41;;;;;;;1.50;1.40;;;18.60;99.90;;;;;;5036398;28;20229;-76
2021/06/05 03:55:09;;;;;;;1.77;1.60;;;18.70;99.90;;;;;;5036350;28;20291;-76
2021/06/05 03:57:38;;;;;;;1.70;1.60;;;18.80;99.90;;;;;;5036438;28;20208;-76
2021/06/05 04:00:05;;;;;;;1.40;1.30;;;18.90;99.90;;;;;;5036106;28;20293;-76
2021/06/05 04:02:32;;;;;;;2.78;1.92;;;19.00;99.90;;;;;;5035740;28;20220;-76
2021/06/05 04:04:58;;;;;;;1.80;1.70;;;19.00;99.90;;;;;;5035984;28;20204;-76
2021/06/05 04:07:24;;;;;;;3.08;1.42;;;19.00;99.90;;;;;;5036077;28;20474;-76
2021/06/05 04:09:51;;;;;;;3.30;1.77;;;19.00;99.90;;;;;;5035921;28;20716;-76
2021/06/05 04:12:17;;;;;;;1.88;1.70;;;19.10;99.90;;;;;;5035583;28;20320;-76
2021/06/05 04:14:45;;;;;;;2.47;1.80;;;19.20;99.90;;;;;;5035663;28;20299;-76
2021/06/05 04:17:11;;;;;;;5.18;1.58;;;19.20;99.90;;;;;;5035773;28;20208;-76
2021/06/05 04:19:39;;;;;;;2.47;1.30;;;19.20;99.90;;;;;;5035590;28;20208;-76
2021/06/05 04:22:07;;;;;;;2.63;1.40;;;19.20;99.90;;;;;;5035251;28;20231;-76
2021/06/05 04:24:34;;;;;;;2.83;1.63;;;19.20;99.90;;;;;;5036115;28;20230;-76
2021/06/05 04:27:00;;;;;;;1.65;1.30;;;19.30;99.90;;;;;;5035854;28;20839;-76
2021/06/05 04:29:27;;;;;;;2.05;1.40;;;19.30;99.90;;;;;;5035246;28;20295;-76
2021/06/05 04:31:55;;;;;;;1.60;1.50;;;19.30;99.90;;;;;;5035077;28;20283;-76
2021/06/05 04:34:21;;;;;;;1.42;1.33;;;19.30;99.90;;;;;;5035134;28;20659;-76
2021/06/05 04:36:49;;;;;;;1.40;1.30;;;19.40;99.90;;;;;;5035272;28;20208;-76
2021/06/05 04:39:16;;;;;;;1.50;1.40;;;19.40;99.90;;;;;;5035589;28;20543;-76
2021/06/05 04:41:42;;;;;;;1.83;1.40;;;19.40;99.90;;;;;;5034783;28;20435;-76
2021/06/05 04:44:09;;;;;;;3.40;1.77;;;19.40;99.90;;;;;;5035332;28;20444;-76
2021/06/05 04:46:36;;;;;;;1.83;1.65;;;19.40;99.90;;;;;;5035271;28;20455;-76
2021/06/05 04:49:04;;;;;;;1.70;1.60;;;19.40;99.90;;;;;;5034799;28;20232;-76
2021/06/05 04:51:30;;;;;;;2.37;1.53;;;19.40;99.90;;;;;;5034448;28;20546;-76
2021/06/05 04:53:57;;;;;;;1.70;1.60;;;19.30;99.90;;;;;;5035327;28;20450;-76
2021/06/05 04:56:31;;;;;;;1.60;1.50;;;19.20;99.90;;;;;;5034867;28;20215;-76
2021/06/05 04:58:58;;;;;;;1.65;1.55;;;19.00;99.90;;;;;;5035097;28;20210;-76
2021/06/05 05:01:24;;;;;;;3.42;1.55;;;19.00;99.90;;;;;;5034807;28;20314;-76
2021/06/05 05:03:50;;;;;;;2.25;1.73;;;18.90;99.90;;;;;;5035317;28;20291;-76
2021/06/05 05:06:18;;;;;;;1.60;1.50;;;19.00;99.90;;;;;;5035126;28;20238;-76
2021/06/05 05:08:44;;;;;;;2.30;1.73;;;19.00;99.90;;;;;;5035076;28;20258;-76
2021/06/05 05:11:11;;;;;;;7.00;4.87;;;19.10;99.90;;;;;;5034049;28;20204;-76
2021/06/05 05:13:37;;;;;;;8.40;6.03;;;19.20;99.90;;;;;;5034834;28;20479;-76
2021/06/05 05:16:05;;;;;;;2.25;2.05;;;19.20;99.90;;;;;;5034796;28;20210;-76
2021/06/05 05:18:32;;;;;;;2.00;1.90;;;19.20;99.90;;;;;;5034427;28;20213;-76
2021/06/05 05:21:00;;;;;;;2.85;1.48;;;19.20;99.90;;;;;;5034206;28;20487;-76
2021/06/05 05:23:29;;;;;;;2.75;2.45;;;19.20;99.90;;;;;;5034472;28;20621;-76
2021/06/05 05:25:56;;;;;;;5.75;3.00;;;19.20;99.90;;;;;;5034735;28;20227;-76
2021/06/05 05:28:23;;;;;;;3.08;1.92;;;19.20;99.90;;;;;;5034339;28;20294;-76
2021/06/05 05:30:52;;;;;;;1.70;1.60;;;19.10;99.90;;;;;;5034059;28;20204;-76
2021/06/05 05:33:20;;;;;;;7.82;2.00;;;19.20;99.90;;;;;;5034306;28;20259;-76
2021/06/05 05:35:47;;;;;;;3.73;2.27;;;19.10;99.90;;;;;;5034804;28;20291;-77
2021/06/05 05:38:14;;;;;;;11.38;2.05;;;19.10;99.90;;;;;;5033900;28;20458;-76
2021/06/05 05:40:45;;;;;;;2.00;1.83;;;19.10;99.90;;;;;;5033930;28;20236;-76
2021/06/05 05:43:12;;;;;;;2.00;1.52;;;19.20;99.90;;;;;;5034479;28;20221;-76
2021/06/05 05:45:39;;;;;;;2.30;1.90;;;19.20;99.90;;;;;;5034256;28;20658;-76
2021/06/05 05:48:12;;;;;;;5.43;2.40;;;19.20;99.90;;;;;;5034360;28;20535;-76
2021/06/05 05:50:40;;;;;;;1.80;1.70;;;19.30;99.90;;;;;;5033989;28;20459;-76
2021/06/05 05:53:07;;;;;;;4.03;1.80;;;19.40;99.90;;;;;;5034050;28;20486;-76
2021/06/05 05:55:33;;;;;;;2.03;1.93;;;19.30;99.90;;;;;;5034093;28;20472;-76
2021/06/05 05:58:05;;;;;;;2.75;1.88;;;19.30;99.90;;;;;;5034170;28;20538;-76
2021/06/05 06:00:33;;;;;;;2.13;1.93;;;19.30;99.90;;;;;;5033007;28;20251;-76
2021/06/05 06:03:00;;;;;;;5.10;1.70;;;19.30;99.90;;;;;;5033490;28;20546;-76
2021/06/05 06:05:27;;;;;;;1.95;1.63;;;19.30;99.90;;;;;;5033876;28;20233;-76
2021/06/05 06:07:53;;;;;;;2.17;1.98;;;19.40;99.90;;;;;;5033888;28;20301;-76
2021/06/05 06:10:23;;;;;;;2.00;1.90;;;19.40;99.90;;;;;;5033432;28;20243;-76
2021/06/05 06:12:50;;;;;;;3.05;1.80;;;19.40;99.90;;;;;;5033705;28;20225;-76
2021/06/05 06:15:21;;;;;;;4.27;2.03;;;19.40;99.90;;;;;;5033967;28;20213;-76
2021/06/05 06:17:48;;;;;;;2.40;2.20;;;19.40;99.90;;;;;;5033727;28;20451;-76
2021/06/05 06:20:19;;;;;;;2.53;1.92;;;19.40;99.90;;;;;;5033515;28;20635;-77
2021/06/05 06:22:46;;;;;;;3.07;1.60;;;19.50;99.90;;;;;;5033930;28;20257;-76
2021/06/05 06:25:15;;;;;;;2.30;2.10;;;19.60;99.90;;;;;;5033755;28;20455;-76
2021/06/05 06:27:41;;;;;;;2.30;2.10;;;19.70;99.90;;;;;;5033903;28;20539;-76
2021/06/05 06:30:09;;;;;;;5.10;3.30;;;19.80;99.90;;;;;;5033310;28;20546;-76
2021/06/05 06:32:37;;;;;;;6.13;1.90;;;19.80;99.90;;;;;;5033008;28;20948;-76
2021/06/05 06:35:04;;;;;;;1.55;1.45;;;19.80;99.90;;;;;;5033884;28;20212;-76
2021/06/05 06:37:30;;;;;;;1.87;1.57;;;19.70;99.90;;;;;;5033346;28;20345;-76
2021/06/05 06:39:57;;;;;;;1.97;1.77;;;19.80;99.90;;;;;;5033112;28;20540;-76
2021/06/05 06:42:23;;;;;;;2.33;1.57;;;19.80;99.90;;;;;;5033760;28;20608;-76
2021/06/05 06:44:49;;;;;;;2.73;1.67;;;20.00;99.90;;;;;;5033400;28;20449;-76
2021/06/05 06:47:16;;;;;;;2.03;1.83;;;20.30;99.90;;;;;;5033952;28;20477;-77
2021/06/05 06:49:44;;;;;;;2.10;1.67;;;20.50;99.90;;;;;;5033528;28;20533;-76
2021/06/05 06:52:10;;;;;;;1.57;1.47;;;20.80;99.90;;;;;;5033240;28;20477;-76
2021/06/05 06:54:36;;;;;;;2.40;1.67;;;20.90;99.90;;;;;;5033903;28;20445;-76
2021/06/05 06:57:03;;;;;;;1.80;1.43;;;20.90;99.90;;;;;;5033145;28;20446;-76
2021/06/05 06:59:31;;;;;;;1.50;1.40;;;21.00;99.90;;;;;;5033285;28;20446;-76
2021/06/05 07:01:58;;;;;;;1.93;1.70;;;21.20;99.90;;;;;;5032985;28;20986;-76
2021/06/05 07:04:24;;;;;;;1.50;1.40;;;21.50;99.90;;;;;;5033330;28;20964;-76
2021/06/05 07:06:52;;;;;;;2.30;1.70;;;21.70;99.90;;;;;;5033522;28;20443;-76
2021/06/05 07:09:18;;;;;;;2.00;1.50;;;21.80;99.90;;;;;;5033580;28;20529;-77
2021/06/05 07:11:44;;;;;;;2.00;1.60;;;21.90;99.90;;;;;;5035151;28;20920;-76
2021/06/05 07:14:11;;;;;;;3.03;1.50;;;22.00;99.90;;;;;;5036759;28;20525;-76
2021/06/05 07:16:39;;;;;;;1.60;1.50;;;22.00;99.90;;;;;;5036986;28;20546;-76
2021/06/05 07:19:06;;;;;;;2.00;1.80;;;22.10;99.90;;;;;;5037066;28;20473;-76
2021/06/05 07:21:33;;;;;;;1.90;1.60;;;22.20;99.90;;;;;;5036180;28;20503;-76
2021/06/05 07:24:01;;;;;;;2.13;1.67;;;22.10;99.90;;;;;;5037387;28;20442;-77
2021/06/05 07:26:28;;;;;;;4.40;1.87;;;22.10;99.90;;;;;;5036383;28;20943;-77
2021/06/05 07:28:57;;;;;;;3.03;1.63;;;22.10;99.90;;;;;;5036712;28;20811;-76
2021/06/05 07:31:28;;;;;;;2.00;1.60;;;22.10;99.90;;;;;;5035923;28;20540;-76
2021/06/05 07:33:55;;;;;;;1.80;1.70;;;22.20;99.90;;;;;;5037196;28;20471;-76
2021/06/05 07:36:24;;;;;;;1.93;1.83;;;22.20;99.90;;;;;;5036856;28;20503;-76
2021/06/05 07:38:51;;;;;;;1.87;1.77;;;22.40;99.90;;;;;;5036328;28;20447;-76
2021/06/05 07:41:19;;;;;;;2.17;1.70;;;22.50;99.90;;;;;;5036142;28;20481;-76
2021/06/05 07:43:46;;;;;;;2.40;2.00;;;22.50;99.90;;;;;;5036673;28;20860;-76
2021/06/05 07:46:12;;;;;;;1.50;1.40;;;22.50;99.90;;;;;;5036399;28;20538;-77
2021/06/05 07:48:39;;;;;;;4.63;1.57;;;22.60;99.90;;;;;;5036507;28;20455;-77
2021/06/05 07:51:07;;;;;;;3.27;1.93;;;22.70;99.90;;;;;;5035711;28;20533;-76
2021/06/05 07:53:33;;;;;;;1.87;1.77;;;22.70;99.90;;;;;;5035889;28;21011;-74
2021/06/05 07:56:00;;;;;;;1.90;1.70;;;22.60;99.90;;;;;;5036269;28;20443;-77
2021/06/05 07:58:28;;;;;;;1.73;1.63;;;22.60;99.90;;;;;;5036124;28;20918;-76
2021/06/05 08:00:54;;;;;;;3.33;2.57;;;22.60;99.90;;;;;;5035849;28;20553;-76
2021/06/05 08:03:20;;;;;;;2.00;1.63;;;22.70;99.90;;;;;;5036572;28;20855;-76
2021/06/05 08:05:47;;;;;;;2.33;2.07;;;22.70;99.90;;;;;;5036316;28;20529;-75
2021/06/05 08:08:18;;;;;;;1.90;1.80;;;22.70;99.90;;;;;;5035942;28;20447;-76
2021/06/05 08:10:45;;;;;;;2.33;1.60;;;22.70;99.90;;;;;;5035490;28;20989;-75
2021/06/05 08:13:12;;;;;;;2.10;1.90;;;22.70;99.90;;;;;;5035771;28;20580;-76
2021/06/05 08:15:43;;;;;;;2.40;1.70;;;22.60;99.90;;;;;;5036117;28;20534;-75
2021/06/05 08:18:10;;;;;;;2.40;1.57;;;22.60;99.90;;;;;;5035957;28;20439;-75
2021/06/05 08:20:43;;;;;;;2.07;1.70;;;22.60;99.90;;;;;;5035234;28;20442;-75
2021/06/05 08:23:10;;;;;;;2.10;2.00;;;22.50;99.90;;;;;;5034939;28;20538;-76
2021/06/05 08:25:37;;;;;;;2.10;1.90;;;22.50;99.90;;;;;;5035554;28;21000;-76
2021/06/05 08:28:05;;;;;;;3.33;1.90;;;22.40;99.90;;;;;;5035813;28;20530;-75
2021/06/05 08:30:35;;;;;;;2.23;1.80;;;22.40;99.90;;;;;;5035634;28;20612;-76
2021/06/05 08:33:04;;;;;;;2.40;2.20;;;22.30;99.90;;;;;;5034975;28;20982;-76
2021/06/05 08:35:30;;;;;;;2.07;1.87;;;22.30;99.90;;;;;;5035420;28;20456;-76
2021/06/05 08:37:56;;;;;;;2.13;1.60;;;22.10;99.90;;;;;;5035492;28;20445;-75
2021/06/05 08:40:32;;;;;;;2.47;2.00;;;22.10;99.90;;;;;;5035241;28;20447;-76
2021/06/05 08:43:00;;;;;;;1.87;1.77;;;22.00;99.90;;;;;;5035130;28;20553;-76
2021/06/05 08:45:31;;;;;;;1.70;1.50;;;21.90;99.90;;;;;;5035571;28;20454;-76
2021/06/05 08:47:58;;;;;;;1.47;1.37;;;21.80;99.90;;;;;;5035295;28;20802;-76
2021/06/05 08:50:29;;;;;;;2.83;2.00;;;21.70;99.90;;;;;;5034754;28;20458;-75
2021/06/05 08:53:03;;;;;;;4.20;2.67;;;21.80;99.90;;;;;;5035386;28;20870;-76
2021/06/05 08:55:35;;;;;;;5.50;3.10;;;21.80;99.90;;;;;;5035350;28;20451;-76
2021/06/05 08:58:08;;;;;;;2.50;2.30;;;21.90;99.90;;;;;;5034932;28;20545;-76
2021/06/05 09:00:40;;;;;;;2.00;1.70;;;22.00;99.90;;;;;;5034905;28;20443;-76
2021/06/05 09:03:13;;;;;;;4.63;1.80;;;22.10;99.90;;;;;;5035188;28;20521;-76
2021/06/05 09:05:48;;;;;;;2.13;1.93;;;22.00;99.90;;;;;;5035146;28;20443;-75
2021/06/05 09:08:18;;;;;;;2.40;2.20;;;22.00;99.90;;;;;;5035124;28;20534;-75
2021/06/05 09:10:45;;;;;;;1.90;1.80;;;22.00;99.90;;;;;;5034630;28;20443;-75
2021/06/05 09:13:12;;;;;;;2.40;2.20;;;22.10;99.90;;;;;;5034774;28;20487;-76
2021/06/05 09:15:38;;;;;;;2.13;1.83;;;22.00;99.90;;;;;;5034816;28;20797;-75
2021/06/05 09:18:06;;;;;;;2.27;2.07;;;22.00;99.90;;;;;;5034841;28;20533;-76
2021/06/05 09:20:44;;;;;;;2.07;1.97;;;22.10;99.90;;;;;;5034445;28;20546;-75
2021/06/05 09:23:28;;;;;;;2.73;2.23;;;22.10;99.90;;;;;;5034533;28;20462;-75
2021/06/05 09:25:56;;;;;;;2.80;1.77;;;22.10;99.90;;;;;;5034631;28;20521;-76
2021/06/05 09:28:27;;;;;;;2.53;2.33;;;22.10;99.90;;;;;;5034479;28;20477;-76
2021/06/05 09:31:11;;;;;;;3.10;2.37;;;22.00;99.90;;;;;;5034179;28;20458;-76
2021/06/05 09:33:37;;;;;;;2.30;2.10;;;21.90;99.90;;;;;;5034055;28;20482;-76
2021/06/05 09:36:18;;;;;;;4.80;2.70;;;21.70;99.90;;;;;;5034334;28;20858;-75
2021/06/05 09:38:50;;;;;;;7.30;2.50;;;21.60;99.90;;;;;;5034728;28;20536;-76
2021/06/05 09:41:24;;;;;;;2.10;1.90;;;21.40;99.90;;;;;;5033856;28;20858;-76
2021/06/05 09:43:52;;;;;;;2.40;2.20;;;21.30;99.90;;;;;;5034474;28;20951;-75
2021/06/05 09:46:25;;;;;;;3.10;2.80;;;21.10;99.90;;;;;;5033892;28;20477;-76
2021/06/05 09:49:00;;;;;;;3.00;2.80;;;21.00;99.90;;;;;;5034092;28;20936;-76
2021/06/05 09:51:34;;;;;;;4.30;2.80;;;21.00;99.90;;;;;;5033729;28;20480;-76
2021/06/05 09:54:07;;;;;;;2.63;2.40;;;20.80;99.90;;;;;;5034603;28;20512;-76
2021/06/05 09:56:36;;;;;;;3.00;2.33;;;20.80;99.90;;;;;;5034009;28;20476;-76
2021/06/05 09:59:07;;;;;;;3.13;2.83;;;20.80;99.90;;;;;;5034392;28;20450;-76
2021/06/05 10:01:36;;;;;;;2.77;2.57;;;20.80;99.90;;;;;;5033740;28;20467;-76
2021/06/05 10:04:19;;;;;;;3.50;2.60;;;20.90;99.90;;;;;;5034372;28;20446;-76
2021/06/05 10:06:48;;;;;;;3.03;2.73;;;21.00;99.90;;;;;;5033936;28;20454;-77
2021/06/05 10:09:39;;;;;;;4.80;2.80;;;21.20;99.90;;;;;;5033634;28;20558;-77
2021/06/05 10:12:09;;;;;;;2.17;2.07;;;21.20;99.90;;;;;;5033803;28;20469;-77
2021/06/05 10:14:47;;;;;;;2.20;2.10;;;21.30;99.90;;;;;;5034295;28;20441;-76
2021/06/05 10:17:22;;;;;;;1.93;1.83;;;21.50;99.90;;;;;;5033717;28;20449;-77
2021/06/05 10:19:53;;;;;;;2.10;1.90;;;21.60;99.90;;;;;;5033416;28;20456;-76
2021/06/05 10:22:21;;;;;;;2.93;2.73;;;21.70;99.90;;;;;;5033666;28;20502;-77
2021/06/05 10:24:56;;;;;;;2.23;2.13;;;21.90;99.90;;;;;;5033845;28;20783;-77
2021/06/05 10:27:27;;;;;;;3.30;1.93;;;21.90;99.90;;;;;;5034142;28;20450;-77
2021/06/05 10:29:58;;;;;;;2.40;1.80;;;22.10;99.90;;;;;;5031346;28;20543;-76
2021/06/05 10:32:28;;;;;;;2.00;1.90;;;22.20;99.90;;;;;;5037721;28;20531;-76
2021/06/05 10:35:01;;;;;;;2.07;1.97;;;22.40;99.90;;;;;;5032534;28;20451;-77
2021/06/05 10:37:32;;;;;;;2.30;2.10;;;22.40;99.90;;;;;;5032305;28;20529;-77
2021/06/05 10:40:00;;;;;;;2.50;2.13;;;22.50;99.90;;;;;;5032620;28;20975;-77
2021/06/05 10:42:35;;;;;;;2.97;2.60;;;22.40;99.90;;;;;;5033268;28;20546;-76
2021/06/05 10:45:03;;;;;;;2.90;2.70;;;22.40;99.90;;;;;;5033963;28;20819;-76
2021/06/05 10:47:36;;;;;;;3.00;2.40;;;22.50;99.90;;;;;;5039268;28;20529;-78
2021/06/05 10:50:09;;;;;;;5.80;2.13;;;22.50;99.90;;;;;;5039017;28;20454;-77
2021/06/05 10:52:46;;;;;;;2.97;2.40;;;22.50;99.90;;;;;;5036357;28;20525;-77
2021/06/05 10:55:17;;;;;;;2.47;2.27;;;22.50;99.90;;;;;;5038517;28;20531;-77
2021/06/05 10:57:48;;;;;;;2.80;2.30;;;22.60;99.90;;;;;;5036530;28;20541;-77
2021/06/05 11:00:29;;;;;;;2.67;2.20;;;22.50;99.90;;;;;;5037000;28;20779;-77
2021/06/05 11:02:57;;;;;;;2.70;2.30;;;22.70;99.90;;;;;;5037888;28;20541;-78
2021/06/05 11:05:44;;;;;;;2.90;2.70;;;22.80;99.90;;;;;;5037600;28;20538;-77
2021/06/05 11:08:32;;;;;;;2.30;2.10;;;23.00;99.90;;;;;;5037492;28;20490;-77
2021/06/05 11:11:35;;;;;;;2.60;2.40;;;22.90;99.90;;;;;;5036071;28;20529;-77
2021/06/05 11:14:08;;;;;;;2.50;2.30;;;22.70;99.90;;;;;;5036483;28;20482;-78
2021/06/05 11:17:09;;;;;;;2.40;2.10;;;22.50;99.90;;;;;;5040437;28;20460;-77
2021/06/05 11:19:40;;;;;;;2.17;2.00;;;22.50;99.90;;;;;;5034324;28;20970;-75
2021/06/05 11:22:08;;;;;;;3.50;2.00;;;22.60;99.90;;;;;;5035166;28;20615;-75
2021/06/05 11:24:36;;;;;;;2.23;2.03;;;22.70;99.90;;;;;;5035496;28;20482;-75
2021/06/05 11:27:09;;;;;;;2.20;2.10;;;22.70;99.90;;;;;;5035186;28;20454;-75
2021/06/05 11:29:52;;;;;;;2.50;2.30;;;22.80;99.90;;;;;;5035265;28;20539;-75
2021/06/05 11:32:49;;;;;;;2.10;2.00;;;22.80;99.90;;;;;;5034673;28;20549;-79
2021/06/05 11:35:48;;;;;;;2.63;2.20;;;22.80;99.90;;;;;;5036339;28;20856;-78
2021/06/05 11:38:47;;;;;;;1.67;1.57;;;22.90;99.90;;;;;;5036824;28;20447;-77
2021/06/05 11:41:49;;;;;;;2.50;2.30;;;23.10;99.90;;;;;;5035453;28;20458;-76
2021/06/05 11:44:28;;;;;;;1.90;1.80;;;23.20;99.90;;;;;;5036440;28;20928;-76
2021/06/05 11:46:57;;;;;;;2.00;1.90;;;23.30;99.90;;;;;;5036938;28;20455;-75
2021/06/05 11:49:51;;;;;;;2.20;1.63;;;23.40;99.90;;;;;;5035222;28;20479;-74
2021/06/05 11:52:43;;;;;;;1.93;1.83;;;23.60;99.90;;;;;;5034748;28;20469;-75
2021/06/05 11:55:27;;;;;;;1.97;1.87;;;23.80;99.90;;;;;;5035036;28;20585;-76
2021/06/05 11:58:29;;;;;;;1.80;1.70;;;23.80;99.90;;;;;;5033586;28;20509;-73
2021/06/05 12:01:13;;;;;;;2.37;1.67;;;23.80;99.90;;;;;;5034419;28;20447;-73
2021/06/05 12:03:48;;;;;;;1.77;1.47;;;24.00;99.90;;;;;;5034693;28;20584;-73
2021/06/05 12:06:20;;;;;;;2.93;1.60;;;24.00;99.90;;;;;;5034909;28;20458;-74
2021/06/05 12:08:59;;;;;;;1.53;1.43;;;24.00;99.90;;;;;;5034604;28;20451;-73
2021/06/05 12:11:34;;;;;;;2.40;1.67;;;23.90;99.90;;;;;;5034206;28;20481;-74
2021/06/05 12:14:13;;;;;;;1.80;1.70;;;23.60;99.90;;;;;;5034236;28;20478;-74
2021/06/05 12:16:47;;;;;;;3.17;1.97;;;23.40;99.90;;;;;;5034511;28;21034;-74
2021/06/05 12:19:14;;;;;;;2.53;1.80;;;23.40;99.90;;;;;;5034293;28;20481;-73
2021/06/05 12:21:41;;;;;;;1.90;1.80;;;23.40;99.90;;;;;;5034306;28;20464;-74
2021/06/05 12:24:21;;;;;;;2.20;2.00;;;23.30;99.90;;;;;;5034394;28;21125;-74
2021/06/05 12:26:53;;;;;;;1.80;1.70;;;23.20;99.90;;;;;;5034558;28;20447;-73
2021/06/05 12:29:24;;;;;;;1.97;1.80;;;23.20;99.90;;;;;;5034558;28;20507;-73
2021/06/05 12:31:54;;;;;;;1.93;1.60;;;23.10;99.90;;;;;;5034041;28;20503;-73
2021/06/05 12:34:35;;;;;;;2.33;2.10;;;23.10;99.90;;;;;;5034132;28;20574;-72
2021/06/05 12:37:05;;;;;;;1.90;1.80;;;23.10;99.90;;;;;;5034398;28;20557;-71
2021/06/05 12:39:44;;;;;;;5.30;1.87;;;23.00;99.90;;;;;;5034089;28;20538;-75
2021/06/05 12:42:14;;;;;;;2.27;2.07;;;23.00;99.90;;;;;;5033994;28;20470;-75
2021/06/05 12:44:42;;;;;;;2.20;2.00;;;22.80;99.90;;;;;;5034137;28;20892;-75
2021/06/05 12:47:14;;;;;;;2.50;2.30;;;22.70;99.90;;;;;;5033934;28;20451;-74
2021/06/05 12:49:44;;;;;;;8.03;5.77;;;22.70;99.90;;;;;;5034091;28;20538;-74
2021/06/05 12:52:16;;;;;;;3.30;2.93;;;22.80;99.90;;;;;;5033492;28;20471;-73
2021/06/05 12:54:47;;;;;;;1.97;1.87;;;22.90;99.90;;;;;;5033840;28;20532;-73
2021/06/05 12:57:27;;;;;;;2.40;2.13;;;23.00;99.90;;;;;;5034042;28;20461;-74
2021/06/05 12:59:54;;;;;;;3.30;2.10;;;22.90;99.90;;;;;;5033699;28;20512;-73
2021/06/05 13:02:30;;;;;;;2.27;2.17;;;23.00;99.90;;;;;;5033411;28;20477;-73
2021/06/05 13:05:09;;;;;;;2.50;1.70;;;23.30;99.90;;;;;;5033767;28;20444;-73